createdAt,value
2023-04-17T00:00:33.915Z,18.62
2023-04-17T00:03:01.628Z,18.61
2023-04-17T00:05:28.658Z,18.59
2023-04-17T00:07:55.229Z,18.59
2023-04-17T00:10:21.800Z,18.58
2023-04-17T00:12:48.623Z,18.57
2023-04-17T00:15:15.290Z,18.56
2023-04-17T00:17:41.984Z,18.55
2023-04-17T00:20:12.418Z,18.55
2023-04-17T00:22:39.123Z,18.53
2023-04-17T00:25:06.311Z,18.52
2023-04-17T00:27:32.859Z,18.52
2023-04-17T00:29:59.409Z,18.50
2023-04-17T00:32:25.988Z,18.49
2023-04-17T00:34:55.560Z,18.50
2023-04-17T00:37:22.401Z,18.49
2023-04-17T00:39:48.936Z,18.49
2023-04-17T00:42:15.488Z,18.48
2023-04-17T00:44:42.042Z,18.47
2023-04-17T00:47:08.703Z,18.47
2023-04-17T00:49:36.058Z,18.46
2023-04-17T00:52:02.745Z,18.45
2023-04-17T00:54:29.861Z,18.45
2023-04-17T00:56:57.710Z,18.44
2023-04-17T00:59:26.579Z,18.45
2023-04-17T01:01:53.218Z,18.43
2023-04-17T01:04:19.929Z,18.43
2023-04-17T01:06:46.650Z,18.42
2023-04-17T01:09:14.002Z,18.41
2023-04-17T01:11:40.758Z,18.40
2023-04-17T01:14:07.375Z,18.39
2023-04-17T01:16:33.997Z,18.39
2023-04-17T01:19:00.892Z,18.39
2023-04-17T01:21:28.166Z,18.38
2023-04-17T01:23:55.394Z,18.38
2023-04-17T01:26:23.572Z,18.39
2023-04-17T01:28:57.293Z,18.37
2023-04-17T01:31:24.668Z,18.35
2023-04-17T01:33:51.924Z,18.38
2023-04-17T01:36:19.275Z,18.37
2023-04-17T01:38:45.800Z,18.35
2023-04-17T01:41:12.368Z,18.34
2023-04-17T01:43:44.211Z,18.34
2023-04-17T01:46:11.418Z,18.34
2023-04-17T01:48:38.311Z,18.34
2023-04-17T01:51:05.401Z,18.32
2023-04-17T01:53:32.546Z,18.32
2023-04-17T01:56:00.301Z,18.31
2023-04-17T01:58:27.397Z,18.31
2023-04-17T02:00:53.980Z,18.29
2023-04-17T02:03:20.726Z,18.30
2023-04-17T02:05:47.722Z,18.31
2023-04-17T02:08:14.929Z,18.28
2023-04-17T02:10:42.111Z,18.29
2023-04-17T02:13:09.810Z,18.28
2023-04-17T02:15:39.649Z,18.28
2023-04-17T02:18:06.584Z,18.27
2023-04-17T02:20:37.194Z,18.27
2023-04-17T02:23:05.696Z,18.25
2023-04-17T02:25:32.793Z,18.27
2023-04-17T02:27:59.578Z,18.26
2023-04-17T02:30:27.189Z,18.25
2023-04-17T02:32:54.841Z,18.25
2023-04-17T02:35:22.885Z,18.24
2023-04-17T02:37:49.442Z,18.22
2023-04-17T02:40:16.259Z,18.22
2023-04-17T02:42:43.021Z,18.21
2023-04-17T02:45:10.846Z,18.21
2023-04-17T02:47:37.966Z,18.20
2023-04-17T02:50:05.329Z,18.19
2023-04-17T02:52:34.109Z,18.18
2023-04-17T02:55:00.708Z,18.18
2023-04-17T02:57:27.316Z,18.17
2023-04-17T02:59:53.879Z,18.17
2023-04-17T03:02:22.012Z,18.16
2023-04-17T03:04:50.310Z,18.16
2023-04-17T03:07:18.740Z,18.16
2023-04-17T03:09:49.125Z,18.15
2023-04-17T03:12:16.459Z,18.19
2023-04-17T03:14:43.978Z,18.24
2023-04-17T03:17:11.934Z,18.30
2023-04-17T03:19:38.443Z,18.36
2023-04-17T03:22:05.800Z,18.41
2023-04-17T03:24:32.846Z,18.47
2023-04-17T03:27:00.763Z,18.51
2023-04-17T03:29:27.325Z,18.56
2023-04-17T03:31:53.924Z,18.58
2023-04-17T03:34:21.884Z,18.62
2023-04-17T03:36:48.805Z,18.63
2023-04-17T03:39:15.732Z,18.66
2023-04-17T03:41:42.288Z,18.67
2023-04-17T03:44:09.804Z,18.68
2023-04-17T03:46:36.324Z,18.69
2023-04-17T03:49:02.880Z,18.69
2023-04-17T03:51:29.499Z,18.70
2023-04-17T03:53:56.085Z,18.68
2023-04-17T03:56:22.717Z,18.67
2023-04-17T03:58:49.287Z,18.64
2023-04-17T04:01:15.942Z,18.58
2023-04-17T04:03:42.835Z,18.53
2023-04-17T04:06:09.715Z,18.48
2023-04-17T04:08:36.269Z,18.42
2023-04-17T04:11:03.369Z,18.38
2023-04-17T04:13:29.901Z,18.33
2023-04-17T04:15:56.489Z,18.30
2023-04-17T04:18:23.092Z,18.23
2023-04-17T04:20:49.628Z,18.20
2023-04-17T04:23:16.888Z,18.15
2023-04-17T04:25:43.565Z,18.12
2023-04-17T04:28:10.688Z,18.08
2023-04-17T04:30:38.758Z,18.05
2023-04-17T04:33:06.202Z,18.02
2023-04-17T04:35:32.834Z,18.02
2023-04-17T04:38:02.864Z,17.99
2023-04-17T04:40:30.802Z,17.98
2023-04-17T04:42:58.538Z,18.02
2023-04-17T04:45:25.165Z,18.09
2023-04-17T04:47:51.712Z,18.20
2023-04-17T04:50:18.246Z,18.32
2023-04-17T04:52:44.794Z,18.42
2023-04-17T04:55:12.521Z,18.52
2023-04-17T04:57:39.043Z,18.60
2023-04-17T05:00:06.545Z,18.68
2023-04-17T05:02:33.777Z,18.74
2023-04-17T05:05:00.712Z,18.80
2023-04-17T05:07:27.348Z,18.85
2023-04-17T05:09:53.838Z,18.87
2023-04-17T05:12:20.360Z,18.90
2023-04-17T05:14:47.905Z,18.91
2023-04-17T05:17:14.512Z,18.93
2023-04-17T05:19:41.694Z,18.95
2023-04-17T05:22:08.281Z,18.95
2023-04-17T05:24:34.862Z,18.95
2023-04-17T05:27:02.121Z,18.93
2023-04-17T05:29:28.815Z,18.94
2023-04-17T05:31:55.409Z,18.92
2023-04-17T05:34:22.168Z,18.91
2023-04-17T05:36:48.760Z,18.92
2023-04-17T05:39:15.356Z,18.91
2023-04-17T05:41:41.931Z,18.90
2023-04-17T05:44:08.497Z,18.89
2023-04-17T05:46:35.075Z,18.88
2023-04-17T05:49:01.709Z,18.88
2023-04-17T05:51:28.772Z,18.88
2023-04-17T05:53:55.365Z,18.89
2023-04-17T05:56:21.912Z,18.89
2023-04-17T05:58:48.481Z,18.89
2023-04-17T06:01:17.773Z,18.88
2023-04-17T06:03:44.414Z,18.90
2023-04-17T06:06:11.378Z,18.88
2023-04-17T06:08:37.986Z,18.89
2023-04-17T06:11:04.877Z,18.88
2023-04-17T06:13:31.636Z,18.88
2023-04-17T06:15:58.715Z,18.87
2023-04-17T06:18:25.341Z,18.86
2023-04-17T06:20:51.997Z,18.84
2023-04-17T06:23:18.562Z,18.82
2023-04-17T06:25:45.118Z,18.79
2023-04-17T06:28:11.668Z,18.77
2023-04-17T06:30:38.292Z,18.72
2023-04-17T06:33:04.972Z,18.70
2023-04-17T06:35:31.553Z,18.66
2023-04-17T06:37:58.183Z,18.61
2023-04-17T06:40:24.707Z,18.55
2023-04-17T06:42:51.196Z,18.52
2023-04-17T06:45:17.836Z,18.48
2023-04-17T06:47:46.468Z,18.43
2023-04-17T06:50:13.110Z,18.39
2023-04-17T06:52:39.706Z,18.35
2023-04-17T06:55:06.591Z,18.31
2023-04-17T06:57:34.114Z,18.28
2023-04-17T07:00:00.978Z,18.24
2023-04-17T07:02:27.645Z,18.23
2023-04-17T07:04:57.554Z,18.21
2023-04-17T07:07:25.155Z,18.18
2023-04-17T07:09:51.992Z,18.17
2023-04-17T07:12:18.594Z,18.16
2023-04-17T07:14:45.243Z,18.14
2023-04-17T07:17:11.830Z,18.13
2023-04-17T07:19:38.631Z,18.14
2023-04-17T07:22:05.676Z,18.14
2023-04-17T07:24:35.056Z,18.14
2023-04-17T07:27:03.419Z,18.15
2023-04-17T07:29:30.367Z,18.19
2023-04-17T07:31:56.964Z,18.20
2023-04-17T07:34:25.212Z,18.21
2023-04-17T07:36:54.781Z,18.21
2023-04-17T07:39:21.363Z,18.23
2023-04-17T07:41:49.399Z,18.24
2023-04-17T07:44:16.171Z,18.25
2023-04-17T07:46:42.812Z,18.26
2023-04-17T07:49:11.446Z,18.27
2023-04-17T07:51:41.300Z,18.28
2023-04-17T07:54:08.012Z,18.28
2023-04-17T07:56:34.625Z,18.29
2023-04-17T07:59:01.220Z,18.28
2023-04-17T08:01:27.980Z,18.28
2023-04-17T08:03:55.702Z,18.28
2023-04-17T08:06:22.430Z,18.28
2023-04-17T08:08:48.951Z,18.29
2023-04-17T08:11:15.577Z,18.29
2023-04-17T08:13:42.227Z,18.28
2023-04-17T08:16:09.281Z,18.28
2023-04-17T08:18:37.783Z,18.28
2023-04-17T08:21:04.747Z,18.30
2023-04-17T08:23:31.419Z,18.31
2023-04-17T08:25:58.307Z,18.32
2023-04-17T08:28:25.163Z,18.32
2023-04-17T08:30:51.994Z,18.34
2023-04-17T08:33:18.751Z,18.33
2023-04-17T08:35:45.645Z,18.35
2023-04-17T08:38:14.152Z,18.36
2023-04-17T08:40:43.112Z,18.37
2023-04-17T08:43:19.442Z,18.38
2023-04-17T08:45:55.393Z,18.39
2023-04-17T08:48:25.003Z,18.40
2023-04-17T08:50:53.517Z,18.42
2023-04-17T08:53:20.982Z,18.43
2023-04-17T08:55:48.231Z,18.44
2023-04-17T08:58:16.035Z,18.46
2023-04-17T09:00:44.521Z,18.49
2023-04-17T09:03:12.874Z,18.50
2023-04-17T09:05:48.486Z,18.52
2023-04-17T09:08:26.251Z,18.53
2023-04-17T09:10:54.507Z,18.55
2023-04-17T09:13:25.708Z,18.57
2023-04-17T09:16:21.459Z,18.61
2023-04-17T09:18:49.314Z,18.66
2023-04-17T09:21:20.903Z,18.69
2023-04-17T09:23:52.678Z,18.72
2023-04-17T09:26:33.133Z,18.76
2023-04-17T09:29:03.950Z,18.81
2023-04-17T09:31:32.336Z,18.86
2023-04-17T09:34:12.100Z,18.89
2023-04-17T09:36:41.638Z,18.94
2023-04-17T09:39:20.737Z,18.99
2023-04-17T09:41:47.665Z,19.04
2023-04-17T09:44:26.558Z,19.08
2023-04-17T09:46:53.459Z,19.13
2023-04-17T09:49:24.158Z,19.17
2023-04-17T09:51:52.427Z,19.21
2023-04-17T09:54:20.192Z,19.25
2023-04-17T09:56:49.664Z,19.31
2023-04-17T09:59:16.578Z,19.36
2023-04-17T10:01:43.909Z,19.39
2023-04-17T10:04:12.095Z,19.43
2023-04-17T10:06:38.996Z,19.47
2023-04-17T10:09:05.934Z,19.50
2023-04-17T10:11:37.052Z,19.53
2023-04-17T10:14:19.324Z,19.59
2023-04-17T10:16:47.254Z,19.64
2023-04-17T10:19:34.142Z,19.66
2023-04-17T10:22:15.704Z,19.69
2023-04-17T10:24:43.105Z,19.73
2023-04-17T10:27:24.767Z,19.74
2023-04-17T10:30:05.402Z,19.76
2023-04-17T10:32:34.195Z,19.80
2023-04-17T10:35:16.031Z,19.82
2023-04-17T10:37:48.625Z,19.84
2023-04-17T10:40:21.894Z,19.87
2023-04-17T10:43:23.338Z,19.87
2023-04-17T10:45:59.361Z,19.91
2023-04-17T10:48:38.349Z,19.93
2023-04-17T10:51:23.863Z,19.98
2023-04-17T10:53:51.962Z,20.03
2023-04-17T10:56:32.615Z,20.07
2023-04-17T10:59:01.527Z,20.12
2023-04-17T11:01:36.822Z,20.15
2023-04-17T11:04:06.963Z,20.19
2023-04-17T11:06:38.943Z,20.24
2023-04-17T11:09:10.920Z,20.27
2023-04-17T11:11:44.450Z,20.31
2023-04-17T11:14:22.621Z,20.35
2023-04-17T11:16:51.633Z,20.40
2023-04-17T11:19:27.323Z,20.44
2023-04-17T11:22:01.260Z,20.49
2023-04-17T11:24:29.929Z,20.52
2023-04-17T11:26:59.640Z,20.55
2023-04-17T11:29:27.120Z,20.58
2023-04-17T11:31:55.630Z,20.60
2023-04-17T11:34:22.522Z,20.61
2023-04-17T11:36:53.966Z,20.65
2023-04-17T11:39:21.761Z,20.69
2023-04-17T11:41:49.447Z,20.73
2023-04-17T11:44:18.402Z,20.75
2023-04-17T11:46:55.891Z,20.80
2023-04-17T11:49:30.049Z,20.83
2023-04-17T11:52:04.396Z,20.87
2023-04-17T11:54:39.004Z,20.87
2023-04-17T11:57:09.447Z,20.88
2023-04-17T11:59:37.995Z,20.87
2023-04-17T12:02:08.505Z,20.85
2023-04-17T12:04:37.109Z,20.84
2023-04-17T12:07:05.145Z,20.83
2023-04-17T12:09:33.503Z,20.81
2023-04-17T12:12:04.146Z,20.81
2023-04-17T12:14:31.303Z,20.80
2023-04-17T12:16:57.975Z,20.79
2023-04-17T12:19:26.703Z,20.80
2023-04-17T12:21:54.331Z,20.84
2023-04-17T12:24:22.876Z,20.87
2023-04-17T12:26:50.417Z,20.90
2023-04-17T12:29:17.801Z,20.94
2023-04-17T12:31:45.619Z,20.97
2023-04-17T12:34:12.485Z,21.01
2023-04-17T12:36:39.320Z,21.04
2023-04-17T12:39:05.822Z,21.07
2023-04-17T12:41:32.363Z,21.08
2023-04-17T12:44:01.736Z,21.09
2023-04-17T12:46:28.681Z,21.12
2023-04-17T12:49:04.068Z,21.14
2023-04-17T12:51:32.247Z,21.16
2023-04-17T12:53:58.754Z,21.18
2023-04-17T12:56:25.326Z,21.18
2023-04-17T12:58:51.873Z,21.18
2023-04-17T13:01:18.517Z,21.19
2023-04-17T13:03:45.407Z,21.19
2023-04-17T13:06:12.349Z,21.20
2023-04-17T13:08:39.063Z,21.18
2023-04-17T13:11:05.629Z,21.18
2023-04-17T13:13:32.151Z,21.18
2023-04-17T13:15:58.867Z,21.17
2023-04-17T13:18:26.376Z,21.15
2023-04-17T13:20:52.903Z,21.15
2023-04-17T13:23:19.485Z,21.16
2023-04-17T13:25:46.890Z,21.15
2023-04-17T13:28:13.783Z,21.13
2023-04-17T13:30:40.352Z,21.11
2023-04-17T13:33:07.179Z,21.11
2023-04-17T13:35:33.941Z,21.09
2023-04-17T13:38:02.894Z,21.08
2023-04-17T13:40:30.394Z,21.07
2023-04-17T13:42:56.941Z,21.06
2023-04-17T13:45:23.526Z,21.05
2023-04-17T13:47:50.161Z,21.02
2023-04-17T13:50:16.703Z,21.01
2023-04-17T13:52:43.241Z,21.00
2023-04-17T13:55:13.062Z,20.99
2023-04-17T13:57:39.595Z,20.99
2023-04-17T14:00:07.276Z,20.98
2023-04-17T14:02:33.961Z,20.95
2023-04-17T14:05:00.679Z,20.95
2023-04-17T14:07:27.547Z,20.94
2023-04-17T14:09:54.182Z,20.93
2023-04-17T14:12:21.674Z,20.92
2023-04-17T14:14:48.343Z,20.93
2023-04-17T14:17:14.920Z,20.92
2023-04-17T14:19:41.447Z,20.92
2023-04-17T14:22:08.067Z,20.91
2023-04-17T14:24:34.655Z,20.92
2023-04-17T14:27:02.074Z,20.92
2023-04-17T14:29:28.632Z,20.92
2023-04-17T14:31:55.380Z,20.93
2023-04-17T14:34:21.970Z,20.93
2023-04-17T14:36:48.765Z,20.92
2023-04-17T14:39:15.590Z,20.93
2023-04-17T14:41:42.285Z,20.92
2023-04-17T14:44:08.957Z,20.92
2023-04-17T14:46:35.851Z,20.92
2023-04-17T14:49:02.612Z,20.92
2023-04-17T14:51:30.704Z,20.92
2023-04-17T14:53:57.534Z,20.92
2023-04-17T14:56:24.321Z,20.91
2023-04-17T14:58:50.924Z,20.92
2023-04-17T15:01:17.460Z,20.92
2023-04-17T15:03:46.764Z,20.92
2023-04-17T15:06:14.141Z,20.93
2023-04-17T15:08:40.876Z,20.93
2023-04-17T15:11:07.446Z,20.93
2023-04-17T15:13:34.478Z,20.93
2023-04-17T15:16:01.167Z,20.92
2023-04-17T15:18:27.702Z,20.93
2023-04-17T15:20:54.421Z,20.92
2023-04-17T15:23:22.097Z,20.91
2023-04-17T15:25:48.962Z,20.92
2023-04-17T15:28:15.912Z,20.91
2023-04-17T15:30:42.675Z,20.91
2023-04-17T15:33:10.409Z,20.91
2023-04-17T15:35:37.553Z,20.92
2023-04-17T15:38:06.043Z,20.90
2023-04-17T15:40:32.754Z,20.91
2023-04-17T15:42:59.680Z,20.92
2023-04-17T15:45:27.266Z,20.91
2023-04-17T15:47:54.733Z,20.92
2023-04-17T15:50:21.708Z,20.93
2023-04-17T15:52:48.285Z,20.93
2023-04-17T15:55:15.291Z,20.94
2023-04-17T15:57:43.070Z,20.92
2023-04-17T16:00:10.560Z,20.92
2023-04-17T16:02:37.379Z,20.91
2023-04-17T16:05:04.229Z,20.91
2023-04-17T16:07:31.327Z,20.90
2023-04-17T16:09:58.157Z,20.90
2023-04-17T16:12:24.703Z,20.90
2023-04-17T16:14:51.309Z,20.90
2023-04-17T16:17:17.936Z,20.90
2023-04-17T16:19:44.640Z,20.89
2023-04-17T16:22:11.206Z,20.88
2023-04-17T16:24:37.750Z,20.88
2023-04-17T16:27:06.318Z,20.88
2023-04-17T16:29:32.982Z,20.88
2023-04-17T16:31:59.657Z,20.88
2023-04-17T16:34:26.258Z,20.87
2023-04-17T16:36:52.850Z,20.85
2023-04-17T16:39:19.400Z,20.85
2023-04-17T16:41:46.046Z,20.84
2023-04-17T16:44:12.991Z,20.84
2023-04-17T16:47:03.041Z,20.83
2023-04-17T16:49:26.202Z,20.83
2023-04-17T16:51:52.967Z,20.83
2023-04-17T16:54:21.525Z,20.81
2023-04-17T16:56:48.600Z,20.81
2023-04-17T16:59:15.821Z,20.81
2023-04-17T17:01:42.397Z,20.78
2023-04-17T17:04:09.176Z,20.77
2023-04-17T17:06:35.794Z,20.77
2023-04-17T17:09:02.419Z,20.75
2023-04-17T17:11:29.087Z,20.75
2023-04-17T17:13:56.314Z,20.76
2023-04-17T17:16:22.897Z,20.75
2023-04-17T17:18:49.506Z,20.75
2023-04-17T17:21:16.043Z,20.73
2023-04-17T17:23:42.858Z,20.73
2023-04-17T17:26:09.398Z,20.73
2023-04-17T17:28:36.759Z,20.72
2023-04-17T17:31:06.152Z,20.69
2023-04-17T17:33:32.932Z,20.69
2023-04-17T17:35:59.798Z,20.67
2023-04-17T17:38:28.623Z,20.66
2023-04-17T17:40:58.170Z,20.63
2023-04-17T17:43:24.949Z,20.61
2023-04-17T17:45:52.560Z,20.59
2023-04-17T17:48:20.481Z,20.56
2023-04-17T17:50:47.558Z,20.52
2023-04-17T17:53:16.191Z,20.49
2023-04-17T17:55:42.749Z,20.47
2023-04-17T17:58:09.411Z,20.45
2023-04-17T18:00:36.016Z,20.42
2023-04-17T18:03:02.720Z,20.40
2023-04-17T18:05:29.313Z,20.37
2023-04-17T18:07:55.828Z,20.36
2023-04-17T18:10:22.620Z,20.38
2023-04-17T18:12:49.818Z,20.37
2023-04-17T18:15:16.611Z,20.36
2023-04-17T18:17:43.206Z,20.36
2023-04-17T18:20:10.459Z,20.34
2023-04-17T18:22:38.370Z,20.33
2023-04-17T18:25:08.212Z,20.32
2023-04-17T18:27:37.606Z,20.33
2023-04-17T18:30:08.505Z,20.32
2023-04-17T18:32:35.990Z,20.31
2023-04-17T18:35:02.882Z,20.30
2023-04-17T18:37:29.668Z,20.30
2023-04-17T18:39:56.193Z,20.27
2023-04-17T18:42:22.913Z,20.24
2023-04-17T18:44:49.955Z,20.20
2023-04-17T18:47:16.807Z,20.18
2023-04-17T18:49:43.369Z,20.15
2023-04-17T18:52:09.959Z,20.13
2023-04-17T18:54:36.498Z,20.09
2023-04-17T18:57:03.064Z,20.09
2023-04-17T18:59:30.246Z,20.03
2023-04-17T19:01:56.945Z,20.01
2023-04-17T19:04:23.661Z,19.97
2023-04-17T19:06:50.280Z,19.94
2023-04-17T19:09:16.888Z,19.92
2023-04-17T19:11:43.509Z,19.88
2023-04-17T19:14:10.068Z,19.86
2023-04-17T19:16:37.004Z,19.83
2023-04-17T19:19:05.446Z,19.79
2023-04-17T19:21:32.829Z,19.79
2023-04-17T19:23:59.369Z,19.76
2023-04-17T19:26:25.933Z,19.74
2023-04-17T19:28:52.471Z,19.70
2023-04-17T19:31:19.043Z,19.69
2023-04-17T19:33:45.725Z,19.65
2023-04-17T19:36:12.307Z,19.64
2023-04-17T19:38:38.858Z,19.62
2023-04-17T19:41:19.978Z,19.60
2023-04-17T19:43:49.750Z,19.57
2023-04-17T19:46:17.256Z,19.56
2023-04-17T19:48:45.341Z,19.53
2023-04-17T19:51:12.957Z,19.51
2023-04-17T19:53:40.827Z,19.50
2023-04-17T19:56:08.757Z,19.48
2023-04-17T19:58:36.418Z,19.45
2023-04-17T20:01:03.220Z,19.43
2023-04-17T20:03:30.923Z,19.42
2023-04-17T20:05:58.315Z,19.40
2023-04-17T20:08:25.546Z,19.40
2023-04-17T20:10:52.267Z,19.38
2023-04-17T20:13:18.836Z,19.36
2023-04-17T20:15:45.385Z,19.34
2023-04-17T20:18:12.166Z,19.33
2023-04-17T20:20:39.372Z,19.31
2023-04-17T20:23:06.261Z,19.30
2023-04-17T20:25:32.852Z,19.29
2023-04-17T20:27:59.399Z,19.30
2023-04-17T20:30:25.983Z,19.28
2023-04-17T20:32:52.633Z,19.27
2023-04-17T20:35:23.586Z,19.27
2023-04-17T20:37:51.650Z,19.26
2023-04-17T20:40:19.077Z,19.24
2023-04-17T20:42:46.332Z,19.24
2023-04-17T20:45:13.246Z,19.22
2023-04-17T20:47:52.870Z,19.20
2023-04-17T20:50:22.988Z,19.19
2023-04-17T20:52:49.615Z,19.19
2023-04-17T20:55:18.684Z,19.18
2023-04-17T20:57:45.935Z,19.17
2023-04-17T21:00:12.779Z,19.16
2023-04-17T21:02:39.522Z,19.15
2023-04-17T21:05:07.451Z,19.16
2023-04-17T21:07:34.369Z,19.15
2023-04-17T21:10:01.141Z,19.13
2023-04-17T21:12:28.234Z,19.13
2023-04-17T21:14:54.846Z,19.12
2023-04-17T21:17:21.395Z,19.11
2023-04-17T21:19:48.033Z,19.10
2023-04-17T21:22:14.543Z,19.10
2023-04-17T21:24:41.147Z,19.08
2023-04-17T21:27:07.736Z,19.09
2023-04-17T21:29:34.272Z,19.06
2023-04-17T21:32:00.807Z,19.06
2023-04-17T21:34:27.426Z,19.06
2023-04-17T21:36:54.453Z,19.05
2023-04-17T21:39:21.774Z,19.05
2023-04-17T21:41:48.368Z,19.03
2023-04-17T21:44:15.455Z,19.02
2023-04-17T21:46:45.200Z,19.02
2023-04-17T21:49:12.406Z,19.00
2023-04-17T21:51:39.181Z,18.99
2023-04-17T21:54:05.759Z,18.98
2023-04-17T21:56:32.316Z,18.96
2023-04-17T21:58:58.869Z,18.95
2023-04-17T22:01:25.457Z,18.95
2023-04-17T22:03:52.049Z,18.93
2023-04-17T22:06:18.715Z,18.91
2023-04-17T22:08:45.490Z,18.90
2023-04-17T22:11:12.127Z,18.89
2023-04-17T22:13:38.711Z,18.88
2023-04-17T22:16:06.706Z,18.87
2023-04-17T22:18:33.268Z,18.85
2023-04-17T22:20:59.780Z,18.85
2023-04-17T22:23:45.135Z,18.84
2023-04-17T22:26:11.772Z,18.83
2023-04-17T22:28:38.308Z,18.83
2023-04-17T22:31:42.322Z,18.81
2023-04-17T22:34:46.215Z,18.80
2023-04-17T22:37:31.271Z,18.77
2023-04-17T22:40:35.580Z,18.76
2023-04-17T22:43:39.494Z,18.73
2023-04-17T22:46:06.127Z,18.74
2023-04-17T22:48:32.723Z,18.73
2023-04-17T22:50:59.254Z,18.73
2023-04-17T22:53:26.142Z,18.72
2023-04-17T22:56:13.051Z,18.69
2023-04-17T22:58:41.821Z,18.70
2023-04-17T23:01:08.414Z,18.69
2023-04-17T23:03:35.282Z,18.68
2023-04-17T23:06:01.899Z,18.68
2023-04-17T23:08:30.247Z,18.67
2023-04-17T23:10:59.617Z,18.67
2023-04-17T23:13:30.545Z,18.66
2023-04-17T23:15:57.253Z,18.65
2023-04-17T23:18:23.876Z,18.63
2023-04-17T23:20:50.417Z,18.61
2023-04-17T23:23:18.423Z,18.61
2023-04-17T23:25:45.173Z,18.60
2023-04-17T23:28:11.784Z,18.59
2023-04-17T23:30:38.300Z,18.58
2023-04-17T23:33:04.868Z,18.57
2023-04-17T23:35:31.431Z,18.57
2023-04-17T23:37:57.991Z,18.56
2023-04-17T23:40:25.706Z,18.55
2023-04-17T23:42:52.994Z,18.53
2023-04-17T23:45:19.673Z,18.53
2023-04-17T23:47:46.443Z,18.52
2023-04-17T23:50:13.074Z,18.52
2023-04-17T23:52:39.596Z,18.50
2023-04-17T23:55:06.650Z,18.49
2023-04-17T23:57:35.456Z,18.48
